sensor_id;sensor_type;location;lat;lon;timestamp;temperature;humidity
20866;DHT22;10593;48.398;10.698;2022-10-31T00:02:21;16.30;56.60
20866;DHT22;10593;48.398;10.698;2022-10-31T00:04:47;16.30;56.60
20866;DHT22;10593;48.398;10.698;2022-10-31T00:07:12;16.30;56.60
20866;DHT22;10593;48.398;10.698;2022-10-31T00:09:38;16.30;56.60
20866;DHT22;10593;48.398;10.698;2022-10-31T00:12:04;16.30;56.60
20866;DHT22;10593;48.398;10.698;2022-10-31T00:14:30;16.20;56.60
20866;DHT22;10593;48.398;10.698;2022-10-31T00:16:55;16.20;56.60
20866;DHT22;10593;48.398;10.698;2022-10-31T00:19:21;16.20;56.70
20866;DHT22;10593;48.398;10.698;2022-10-31T00:21:47;16.20;56.70
20866;DHT22;10593;48.398;10.698;2022-10-31T00:24:12;16.20;56.70
20866;DHT22;10593;48.398;10.698;2022-10-31T00:26:38;16.20;56.80
20866;DHT22;10593;48.398;10.698;2022-10-31T00:29:04;16.20;56.80
20866;DHT22;10593;48.398;10.698;2022-10-31T00:31:30;16.20;56.80
20866;DHT22;10593;48.398;10.698;2022-10-31T00:33:56;16.20;56.90
20866;DHT22;10593;48.398;10.698;2022-10-31T00:36:23;16.20;56.90
20866;DHT22;10593;48.398;10.698;2022-10-31T00:38:49;16.20;56.90
20866;DHT22;10593;48.398;10.698;2022-10-31T00:41:16;16.10;56.80
20866;DHT22;10593;48.398;10.698;2022-10-31T00:43:43;16.10;56.80
20866;DHT22;10593;48.398;10.698;2022-10-31T00:46:10;16.10;56.80
20866;DHT22;10593;48.398;10.698;2022-10-31T00:48:36;16.10;56.80
20866;DHT22;10593;48.398;10.698;2022-10-31T00:51:02;16.10;56.80
20866;DHT22;10593;48.398;10.698;2022-10-31T00:53:29;16.10;56.70
20866;DHT22;10593;48.398;10.698;2022-10-31T00:55:55;16.10;56.70
20866;DHT22;10593;48.398;10.698;2022-10-31T00:58:20;16.10;56.60
20866;DHT22;10593;48.398;10.698;2022-10-31T01:00:48;16.00;56.40
20866;DHT22;10593;48.398;10.698;2022-10-31T01:03:21;16.00;56.30
20866;DHT22;10593;48.398;10.698;2022-10-31T01:06:04;16.00;56.30
20866;DHT22;10593;48.398;10.698;2022-10-31T01:08:32;16.00;56.10
20866;DHT22;10593;48.398;10.698;2022-10-31T01:11:10;16.00;56.10
20866;DHT22;10593;48.398;10.698;2022-10-31T01:13:38;16.00;55.90
20866;DHT22;10593;48.398;10.698;2022-10-31T01:16:04;15.90;55.70
20866;DHT22;10593;48.398;10.698;2022-10-31T01:18:31;15.90;55.70
20866;DHT22;10593;48.398;10.698;2022-10-31T01:21:22;15.90;55.60
20866;DHT22;10593;48.398;10.698;2022-10-31T01:23:52;15.90;55.50
20866;DHT22;10593;48.398;10.698;2022-10-31T01:26:21;15.90;55.60
20866;DHT22;10593;48.398;10.698;2022-10-31T01:28:54;15.90;55.60
20866;DHT22;10593;48.398;10.698;2022-10-31T01:31:23;15.80;55.50
20866;DHT22;10593;48.398;10.698;2022-10-31T01:33:50;15.80;55.50
20866;DHT22;10593;48.398;10.698;2022-10-31T01:38:47;15.80;55.60
20866;DHT22;10593;48.398;10.698;2022-10-31T01:41:16;15.80;55.60
20866;DHT22;10593;48.398;10.698;2022-10-31T01:43:55;15.70;55.50
20866;DHT22;10593;48.398;10.698;2022-10-31T01:46:43;15.70;55.60
20866;DHT22;10593;48.398;10.698;2022-10-31T01:49:29;15.70;55.60
20866;DHT22;10593;48.398;10.698;2022-10-31T01:52:01;15.70;55.50
20866;DHT22;10593;48.398;10.698;2022-10-31T01:54:35;15.70;55.50
20866;DHT22;10593;48.398;10.698;2022-10-31T01:57:08;15.70;55.40
20866;DHT22;10593;48.398;10.698;2022-10-31T01:59:42;15.70;55.40
20866;DHT22;10593;48.398;10.698;2022-10-31T02:02:15;15.70;55.30
20866;DHT22;10593;48.398;10.698;2022-10-31T02:04:43;15.60;55.30
20866;DHT22;10593;48.398;10.698;2022-10-31T02:07:34;15.60;55.20
20866;DHT22;10593;48.398;10.698;2022-10-31T02:10:16;15.60;55.10
20866;DHT22;10593;48.398;10.698;2022-10-31T02:12:46;15.60;55.10
20866;DHT22;10593;48.398;10.698;2022-10-31T02:15:12;15.50;55.00
20866;DHT22;10593;48.398;10.698;2022-10-31T02:17:38;15.60;55.00
20866;DHT22;10593;48.398;10.698;2022-10-31T02:20:22;15.50;54.90
20866;DHT22;10593;48.398;10.698;2022-10-31T02:32:27;15.50;54.90
20866;DHT22;10593;48.398;10.698;2022-10-31T02:38:23;15.40;54.80
20866;DHT22;10593;48.398;10.698;2022-10-31T02:47:35;15.30;54.70
20866;DHT22;10593;48.398;10.698;2022-10-31T02:52:43;15.30;54.70
20866;DHT22;10593;48.398;10.698;2022-10-31T02:58:01;15.30;54.80
20866;DHT22;10593;48.398;10.698;2022-10-31T03:00:38;15.30;54.80
20866;DHT22;10593;48.398;10.698;2022-10-31T03:03:20;15.30;55.30
20866;DHT22;10593;48.398;10.698;2022-10-31T03:06:15;15.20;54.70
20866;DHT22;10593;48.398;10.698;2022-10-31T03:14:51;15.20;54.60
20866;DHT22;10593;48.398;10.698;2022-10-31T03:17:36;15.20;54.60
20866;DHT22;10593;48.398;10.698;2022-10-31T03:20:07;15.20;54.50
20866;DHT22;10593;48.398;10.698;2022-10-31T03:22:36;15.20;54.50
20866;DHT22;10593;48.398;10.698;2022-10-31T03:25:05;15.10;54.50
20866;DHT22;10593;48.398;10.698;2022-10-31T03:27:35;15.10;54.40
20866;DHT22;10593;48.398;10.698;2022-10-31T03:30:05;15.10;54.40
20866;DHT22;10593;48.398;10.698;2022-10-31T03:32:43;15.10;54.40
20866;DHT22;10593;48.398;10.698;2022-10-31T03:35:17;15.10;54.40
20866;DHT22;10593;48.398;10.698;2022-10-31T03:37:45;15.10;54.30
20866;DHT22;10593;48.398;10.698;2022-10-31T03:40:14;15.10;54.30
20866;DHT22;10593;48.398;10.698;2022-10-31T03:42:48;15.00;54.20
20866;DHT22;10593;48.398;10.698;2022-10-31T03:45:24;15.00;54.20
20866;DHT22;10593;48.398;10.698;2022-10-31T03:47:54;15.00;54.20
20866;DHT22;10593;48.398;10.698;2022-10-31T03:50:21;15.00;54.30
20866;DHT22;10593;48.398;10.698;2022-10-31T03:53:00;15.00;54.30
20866;DHT22;10593;48.398;10.698;2022-10-31T03:56:16;15.00;54.20
20866;DHT22;10593;48.398;10.698;2022-10-31T03:58:29;15.00;54.30
20866;DHT22;10593;48.398;10.698;2022-10-31T04:01:04;15.00;54.20
20866;DHT22;10593;48.398;10.698;2022-10-31T04:03:33;15.00;54.70
20866;DHT22;10593;48.398;10.698;2022-10-31T04:06:05;14.90;54.10
20866;DHT22;10593;48.398;10.698;2022-10-31T04:08:41;14.90;54.10
20866;DHT22;10593;48.398;10.698;2022-10-31T04:11:11;14.90;54.10
20866;DHT22;10593;48.398;10.698;2022-10-31T04:13:41;14.90;54.10
20866;DHT22;10593;48.398;10.698;2022-10-31T04:16:10;14.90;54.10
20866;DHT22;10593;48.398;10.698;2022-10-31T04:18:36;14.90;54.10
20866;DHT22;10593;48.398;10.698;2022-10-31T04:21:05;14.90;54.20
20866;DHT22;10593;48.398;10.698;2022-10-31T04:23:33;14.90;54.20
20866;DHT22;10593;48.398;10.698;2022-10-31T04:26:00;14.80;54.20
20866;DHT22;10593;48.398;10.698;2022-10-31T04:28:26;14.80;54.10
20866;DHT22;10593;48.398;10.698;2022-10-31T04:30:52;14.80;54.10
20866;DHT22;10593;48.398;10.698;2022-10-31T04:33:18;14.80;54.00
20866;DHT22;10593;48.398;10.698;2022-10-31T04:35:45;14.80;54.00
20866;DHT22;10593;48.398;10.698;2022-10-31T04:38:11;14.80;53.90
20866;DHT22;10593;48.398;10.698;2022-10-31T04:40:37;14.70;53.80
20866;DHT22;10593;48.398;10.698;2022-10-31T04:43:02;14.70;53.70
20866;DHT22;10593;48.398;10.698;2022-10-31T04:45:28;14.70;53.70
20866;DHT22;10593;48.398;10.698;2022-10-31T04:47:54;14.70;53.60
20866;DHT22;10593;48.398;10.698;2022-10-31T04:50:20;14.70;53.60
20866;DHT22;10593;48.398;10.698;2022-10-31T04:52:46;14.70;53.80
20866;DHT22;10593;48.398;10.698;2022-10-31T04:55:12;14.70;53.50
20866;DHT22;10593;48.398;10.698;2022-10-31T04:57:47;14.70;53.50
20866;DHT22;10593;48.398;10.698;2022-10-31T05:00:16;14.60;53.40
20866;DHT22;10593;48.398;10.698;2022-10-31T05:02:51;14.60;53.50
20866;DHT22;10593;48.398;10.698;2022-10-31T05:05:21;14.60;53.40
20866;DHT22;10593;48.398;10.698;2022-10-31T05:07:49;14.60;53.40
20866;DHT22;10593;48.398;10.698;2022-10-31T05:10:22;14.60;53.40
20866;DHT22;10593;48.398;10.698;2022-10-31T05:12:54;14.60;53.40
20866;DHT22;10593;48.398;10.698;2022-10-31T05:15:23;14.60;53.40
20866;DHT22;10593;48.398;10.698;2022-10-31T05:17:50;14.50;53.30
20866;DHT22;10593;48.398;10.698;2022-10-31T05:20:18;14.60;53.40
20866;DHT22;10593;48.398;10.698;2022-10-31T05:22:51;14.50;53.30
20866;DHT22;10593;48.398;10.698;2022-10-31T05:25:19;14.50;53.20
20866;DHT22;10593;48.398;10.698;2022-10-31T05:27:47;14.50;53.30
20866;DHT22;10593;48.398;10.698;2022-10-31T05:30:17;14.50;53.30
20866;DHT22;10593;48.398;10.698;2022-10-31T05:32:46;14.50;53.30
20866;DHT22;10593;48.398;10.698;2022-10-31T05:35:15;14.50;53.20
20866;DHT22;10593;48.398;10.698;2022-10-31T05:37:42;14.40;53.10
20866;DHT22;10593;48.398;10.698;2022-10-31T05:40:11;14.40;53.10
20866;DHT22;10593;48.398;10.698;2022-10-31T05:42:39;14.40;53.10
20866;DHT22;10593;48.398;10.698;2022-10-31T05:45:07;14.40;53.10
20866;DHT22;10593;48.398;10.698;2022-10-31T05:47:34;14.40;53.20
20866;DHT22;10593;48.398;10.698;2022-10-31T05:50:00;14.40;53.20
20866;DHT22;10593;48.398;10.698;2022-10-31T05:52:25;14.30;53.10
20866;DHT22;10593;48.398;10.698;2022-10-31T05:54:51;14.30;53.20
20866;DHT22;10593;48.398;10.698;2022-10-31T05:57:17;14.30;53.20
20866;DHT22;10593;48.398;10.698;2022-10-31T05:59:42;14.30;53.20
20866;DHT22;10593;48.398;10.698;2022-10-31T06:02:08;14.30;53.30
20866;DHT22;10593;48.398;10.698;2022-10-31T06:04:33;14.30;53.30
20866;DHT22;10593;48.398;10.698;2022-10-31T06:06:59;14.30;53.30
20866;DHT22;10593;48.398;10.698;2022-10-31T06:09:25;14.20;53.30
20866;DHT22;10593;48.398;10.698;2022-10-31T06:11:50;14.30;53.30
20866;DHT22;10593;48.398;10.698;2022-10-31T06:14:16;14.20;53.20
20866;DHT22;10593;48.398;10.698;2022-10-31T06:16:42;14.20;53.10
20866;DHT22;10593;48.398;10.698;2022-10-31T06:19:07;14.20;53.10
20866;DHT22;10593;48.398;10.698;2022-10-31T06:21:33;14.20;53.00
20866;DHT22;10593;48.398;10.698;2022-10-31T06:23:58;14.20;52.90
20866;DHT22;10593;48.398;10.698;2022-10-31T06:26:24;14.20;52.90
20866;DHT22;10593;48.398;10.698;2022-10-31T06:28:50;14.20;52.90
20866;DHT22;10593;48.398;10.698;2022-10-31T06:31:15;14.20;52.90
20866;DHT22;10593;48.398;10.698;2022-10-31T06:33:41;14.20;52.90
20866;DHT22;10593;48.398;10.698;2022-10-31T06:36:08;14.20;52.90
20866;DHT22;10593;48.398;10.698;2022-10-31T06:38:34;14.20;52.90
20866;DHT22;10593;48.398;10.698;2022-10-31T06:41:04;14.10;52.90
20866;DHT22;10593;48.398;10.698;2022-10-31T06:43:31;14.10;52.90
20866;DHT22;10593;48.398;10.698;2022-10-31T06:45:57;14.10;53.00
20866;DHT22;10593;48.398;10.698;2022-10-31T06:48:26;14.10;53.00
20866;DHT22;10593;48.398;10.698;2022-10-31T06:50:52;14.10;53.10
20866;DHT22;10593;48.398;10.698;2022-10-31T06:53:17;14.10;53.10
20866;DHT22;10593;48.398;10.698;2022-10-31T06:55:43;14.10;53.30
20866;DHT22;10593;48.398;10.698;2022-10-31T06:58:10;14.10;53.30
20866;DHT22;10593;48.398;10.698;2022-10-31T07:00:36;14.10;53.40
20866;DHT22;10593;48.398;10.698;2022-10-31T07:03:04;14.10;53.60
20866;DHT22;10593;48.398;10.698;2022-10-31T07:05:31;14.10;53.70
20866;DHT22;10593;48.398;10.698;2022-10-31T07:07:59;14.10;53.70
20866;DHT22;10593;48.398;10.698;2022-10-31T07:10:29;14.10;53.90
20866;DHT22;10593;48.398;10.698;2022-10-31T07:12:57;14.10;54.60
20866;DHT22;10593;48.398;10.698;2022-10-31T07:15:25;14.10;54.20
20866;DHT22;10593;48.398;10.698;2022-10-31T07:17:52;14.10;54.30
20866;DHT22;10593;48.398;10.698;2022-10-31T07:20:19;14.10;54.30
20866;DHT22;10593;48.398;10.698;2022-10-31T07:22:44;14.10;54.40
20866;DHT22;10593;48.398;10.698;2022-10-31T07:25:10;14.10;54.40
20866;DHT22;10593;48.398;10.698;2022-10-31T07:27:40;14.20;54.60
20866;DHT22;10593;48.398;10.698;2022-10-31T07:30:09;14.20;54.70
20866;DHT22;10593;48.398;10.698;2022-10-31T07:32:46;14.20;54.80
20866;DHT22;10593;48.398;10.698;2022-10-31T07:35:21;14.20;54.80
20866;DHT22;10593;48.398;10.698;2022-10-31T07:37:49;14.20;54.80
20866;DHT22;10593;48.398;10.698;2022-10-31T07:40:16;14.20;54.80
20866;DHT22;10593;48.398;10.698;2022-10-31T07:42:46;14.30;54.90
20866;DHT22;10593;48.398;10.698;2022-10-31T07:45:16;14.30;54.80
20866;DHT22;10593;48.398;10.698;2022-10-31T07:47:50;14.30;54.90
20866;DHT22;10593;48.398;10.698;2022-10-31T07:50:37;14.30;54.90
20866;DHT22;10593;48.398;10.698;2022-10-31T07:53:09;14.40;55.20
20866;DHT22;10593;48.398;10.698;2022-10-31T07:55:36;14.40;55.30
20866;DHT22;10593;48.398;10.698;2022-10-31T07:58:10;14.40;55.50
20866;DHT22;10593;48.398;10.698;2022-10-31T08:00:41;14.40;55.70
20866;DHT22;10593;48.398;10.698;2022-10-31T08:03:11;14.40;55.90
20866;DHT22;10593;48.398;10.698;2022-10-31T08:05:38;14.40;56.00
20866;DHT22;10593;48.398;10.698;2022-10-31T08:08:06;14.50;56.40
20866;DHT22;10593;48.398;10.698;2022-10-31T08:10:33;14.50;56.50
20866;DHT22;10593;48.398;10.698;2022-10-31T08:13:11;14.50;56.70
20866;DHT22;10593;48.398;10.698;2022-10-31T08:15:38;14.50;57.10
20866;DHT22;10593;48.398;10.698;2022-10-31T08:18:10;14.60;57.20
20866;DHT22;10593;48.398;10.698;2022-10-31T08:20:40;14.60;57.50
20866;DHT22;10593;48.398;10.698;2022-10-31T08:23:07;14.60;57.70
20866;DHT22;10593;48.398;10.698;2022-10-31T08:25:34;14.60;57.90
20866;DHT22;10593;48.398;10.698;2022-10-31T08:28:01;14.70;58.20
20866;DHT22;10593;48.398;10.698;2022-10-31T08:30:32;14.70;58.40
20866;DHT22;10593;48.398;10.698;2022-10-31T08:33:08;14.70;58.50
20866;DHT22;10593;48.398;10.698;2022-10-31T08:35:39;14.70;58.50
20866;DHT22;10593;48.398;10.698;2022-10-31T08:38:05;14.80;58.60
20866;DHT22;10593;48.398;10.698;2022-10-31T08:40:33;14.80;58.60
20866;DHT22;10593;48.398;10.698;2022-10-31T08:43:05;14.80;58.60
20866;DHT22;10593;48.398;10.698;2022-10-31T08:45:33;14.90;59.10
20866;DHT22;10593;48.398;10.698;2022-10-31T08:48:02;14.90;59.20
20866;DHT22;10593;48.398;10.698;2022-10-31T08:50:31;14.90;59.20
20866;DHT22;10593;48.398;10.698;2022-10-31T08:53:07;14.90;59.40
20866;DHT22;10593;48.398;10.698;2022-10-31T08:55:38;15.00;59.80
20866;DHT22;10593;48.398;10.698;2022-10-31T08:58:12;15.00;59.80
20866;DHT22;10593;48.398;10.698;2022-10-31T09:00:39;15.00;60.20
20866;DHT22;10593;48.398;10.698;2022-10-31T09:03:17;15.00;60.40
20866;DHT22;10593;48.398;10.698;2022-10-31T09:05:54;15.00;61.20
20866;DHT22;10593;48.398;10.698;2022-10-31T09:08:20;15.10;61.20
20866;DHT22;10593;48.398;10.698;2022-10-31T09:10:46;15.10;61.80
20866;DHT22;10593;48.398;10.698;2022-10-31T09:13:14;15.10;62.10
20866;DHT22;10593;48.398;10.698;2022-10-31T09:15:43;15.20;62.60
20866;DHT22;10593;48.398;10.698;2022-10-31T09:18:11;15.20;62.80
20866;DHT22;10593;48.398;10.698;2022-10-31T09:20:40;15.30;63.30
20866;DHT22;10593;48.398;10.698;2022-10-31T09:23:20;15.30;63.50
20866;DHT22;10593;48.398;10.698;2022-10-31T09:25:50;15.30;64.20
20866;DHT22;10593;48.398;10.698;2022-10-31T09:28:19;15.40;64.20
20866;DHT22;10593;48.398;10.698;2022-10-31T09:30:48;15.40;64.50
20866;DHT22;10593;48.398;10.698;2022-10-31T09:33:15;15.40;64.80
20866;DHT22;10593;48.398;10.698;2022-10-31T09:35:41;15.50;65.00
20866;DHT22;10593;48.398;10.698;2022-10-31T09:38:12;15.60;65.60
20866;DHT22;10593;48.398;10.698;2022-10-31T09:40:42;15.60;66.50
20866;DHT22;10593;48.398;10.698;2022-10-31T09:43:25;15.60;66.90
20866;DHT22;10593;48.398;10.698;2022-10-31T09:49:53;15.80;67.40
20866;DHT22;10593;48.398;10.698;2022-10-31T09:52:34;15.80;67.80
20866;DHT22;10593;48.398;10.698;2022-10-31T09:58:01;16.00;67.40
20866;DHT22;10593;48.398;10.698;2022-10-31T10:00:28;16.00;67.10
20866;DHT22;10593;48.398;10.698;2022-10-31T10:03:01;16.10;67.20
20866;DHT22;10593;48.398;10.698;2022-10-31T10:05:41;16.10;67.20
20866;DHT22;10593;48.398;10.698;2022-10-31T10:08:26;16.20;67.50
20866;DHT22;10593;48.398;10.698;2022-10-31T10:13:49;16.30;67.80
20866;DHT22;10593;48.398;10.698;2022-10-31T10:22:20;16.50;66.70
20866;DHT22;10593;48.398;10.698;2022-10-31T10:25:20;16.50;66.50
20866;DHT22;10593;48.398;10.698;2022-10-31T10:28:21;16.60;66.60
20866;DHT22;10593;48.398;10.698;2022-10-31T10:30:56;16.60;66.80
20866;DHT22;10593;48.398;10.698;2022-10-31T10:33:35;16.70;66.60
20866;DHT22;10593;48.398;10.698;2022-10-31T10:36:12;16.70;66.80
20866;DHT22;10593;48.398;10.698;2022-10-31T10:38:50;16.70;66.80
20866;DHT22;10593;48.398;10.698;2022-10-31T10:41:23;16.80;67.10
20866;DHT22;10593;48.398;10.698;2022-10-31T10:43:52;16.80;66.90
20866;DHT22;10593;48.398;10.698;2022-10-31T10:46:40;16.90;66.80
20866;DHT22;10593;48.398;10.698;2022-10-31T10:49:35;16.90;67.30
20866;DHT22;10593;48.398;10.698;2022-10-31T10:58:14;17.00;67.10
20866;DHT22;10593;48.398;10.698;2022-10-31T11:00:44;17.10;66.90
20866;DHT22;10593;48.398;10.698;2022-10-31T11:03:13;17.10;67.00
20866;DHT22;10593;48.398;10.698;2022-10-31T11:05:57;17.10;66.90
20866;DHT22;10593;48.398;10.698;2022-10-31T11:13:48;17.20;66.50
20866;DHT22;10593;48.398;10.698;2022-10-31T11:16:36;17.20;66.20
20866;DHT22;10593;48.398;10.698;2022-10-31T11:19:15;17.30;66.20
20866;DHT22;10593;48.398;10.698;2022-10-31T11:21:45;17.30;66.10
20866;DHT22;10593;48.398;10.698;2022-10-31T11:26:41;17.40;66.20
20866;DHT22;10593;48.398;10.698;2022-10-31T11:29:20;17.40;66.20
20866;DHT22;10593;48.398;10.698;2022-10-31T11:31:51;17.40;66.20
20866;DHT22;10593;48.398;10.698;2022-10-31T11:34:26;17.50;66.00
20866;DHT22;10593;48.398;10.698;2022-10-31T11:36:52;17.50;65.90
20866;DHT22;10593;48.398;10.698;2022-10-31T11:39:23;17.50;65.50
20866;DHT22;10593;48.398;10.698;2022-10-31T11:41:51;17.50;65.20
20866;DHT22;10593;48.398;10.698;2022-10-31T11:44:24;17.60;65.10
20866;DHT22;10593;48.398;10.698;2022-10-31T11:46:56;17.60;65.00
20866;DHT22;10593;48.398;10.698;2022-10-31T11:52:06;17.60;65.10
20866;DHT22;10593;48.398;10.698;2022-10-31T11:55:01;17.70;65.10
20866;DHT22;10593;48.398;10.698;2022-10-31T11:57:48;17.70;64.60
20866;DHT22;10593;48.398;10.698;2022-10-31T12:00:29;17.70;64.80
20866;DHT22;10593;48.398;10.698;2022-10-31T12:03:21;17.70;64.70
20866;DHT22;10593;48.398;10.698;2022-10-31T12:06:22;17.80;64.70
20866;DHT22;10593;48.398;10.698;2022-10-31T12:08:51;17.80;64.80
20866;DHT22;10593;48.398;10.698;2022-10-31T12:11:59;17.80;65.10
20866;DHT22;10593;48.398;10.698;2022-10-31T12:15:23;17.90;64.90
20866;DHT22;10593;48.398;10.698;2022-10-31T12:18:30;17.90;64.70
20866;DHT22;10593;48.398;10.698;2022-10-31T12:24:43;18.00;64.30
20866;DHT22;10593;48.398;10.698;2022-10-31T12:30:19;18.00;64.20
20866;DHT22;10593;48.398;10.698;2022-10-31T12:39:01;18.10;64.30
20866;DHT22;10593;48.398;10.698;2022-10-31T12:44:50;18.20;64.50
20866;DHT22;10593;48.398;10.698;2022-10-31T12:47:47;18.20;64.40
20866;DHT22;10593;48.398;10.698;2022-10-31T12:59:38;18.40;64.40
20866;DHT22;10593;48.398;10.698;2022-10-31T13:02:29;18.40;65.00
20866;DHT22;10593;48.398;10.698;2022-10-31T13:05:11;18.50;65.20
20866;DHT22;10593;48.398;10.698;2022-10-31T13:08:13;18.50;65.10
20866;DHT22;10593;48.398;10.698;2022-10-31T13:13:57;18.50;65.40
20866;DHT22;10593;48.398;10.698;2022-10-31T13:16:33;18.50;65.40
20866;DHT22;10593;48.398;10.698;2022-10-31T13:19:14;18.50;65.50
20866;DHT22;10593;48.398;10.698;2022-10-31T13:22:34;18.50;65.40
20866;DHT22;10593;48.398;10.698;2022-10-31T13:25:00;18.50;65.80
20866;DHT22;10593;48.398;10.698;2022-10-31T13:27:44;18.60;66.10
20866;DHT22;10593;48.398;10.698;2022-10-31T13:30:19;18.50;66.40
20866;DHT22;10593;48.398;10.698;2022-10-31T13:32:48;18.60;66.50
20866;DHT22;10593;48.398;10.698;2022-10-31T13:35:45;18.50;66.70
20866;DHT22;10593;48.398;10.698;2022-10-31T13:38:32;18.50;67.00
20866;DHT22;10593;48.398;10.698;2022-10-31T13:41:11;18.60;66.70
20866;DHT22;10593;48.398;10.698;2022-10-31T13:46:52;18.60;66.90
20866;DHT22;10593;48.398;10.698;2022-10-31T13:54:40;18.70;67.40
20866;DHT22;10593;48.398;10.698;2022-10-31T13:57:19;18.70;66.50
20866;DHT22;10593;48.398;10.698;2022-10-31T13:59:56;18.70;66.70
20866;DHT22;10593;48.398;10.698;2022-10-31T14:02:35;18.60;66.40
20866;DHT22;10593;48.398;10.698;2022-10-31T14:05:04;18.70;66.60
20866;DHT22;10593;48.398;10.698;2022-10-31T14:07:43;18.70;66.50
20866;DHT22;10593;48.398;10.698;2022-10-31T14:10:24;18.70;66.30
20866;DHT22;10593;48.398;10.698;2022-10-31T14:13:06;18.70;66.20
20866;DHT22;10593;48.398;10.698;2022-10-31T14:15:41;18.70;66.30
20866;DHT22;10593;48.398;10.698;2022-10-31T14:18:24;18.70;66.30
20866;DHT22;10593;48.398;10.698;2022-10-31T14:20:54;18.70;66.20
20866;DHT22;10593;48.398;10.698;2022-10-31T14:28:52;18.60;66.10
20866;DHT22;10593;48.398;10.698;2022-10-31T14:31:39;18.60;65.90
20866;DHT22;10593;48.398;10.698;2022-10-31T14:34:34;18.60;66.10
20866;DHT22;10593;48.398;10.698;2022-10-31T14:43:16;18.60;66.20
20866;DHT22;10593;48.398;10.698;2022-10-31T14:46:01;18.50;66.40
20866;DHT22;10593;48.398;10.698;2022-10-31T14:48:55;18.50;66.00
20866;DHT22;10593;48.398;10.698;2022-10-31T14:51:46;18.60;66.10
20866;DHT22;10593;48.398;10.698;2022-10-31T14:54:19;18.50;66.00
20866;DHT22;10593;48.398;10.698;2022-10-31T14:56:50;18.50;65.90
20866;DHT22;10593;48.398;10.698;2022-10-31T14:59:28;18.50;66.00
20866;DHT22;10593;48.398;10.698;2022-10-31T15:01:59;18.50;66.00
20866;DHT22;10593;48.398;10.698;2022-10-31T15:04:34;18.50;65.90
20866;DHT22;10593;48.398;10.698;2022-10-31T15:07:16;18.50;65.80
20866;DHT22;10593;48.398;10.698;2022-10-31T15:09:55;18.50;65.90
20866;DHT22;10593;48.398;10.698;2022-10-31T15:12:47;18.50;66.00
20866;DHT22;10593;48.398;10.698;2022-10-31T15:15:18;18.50;65.60
20866;DHT22;10593;48.398;10.698;2022-10-31T15:17:56;18.40;65.60
20866;DHT22;10593;48.398;10.698;2022-10-31T15:20:26;18.40;65.60
20866;DHT22;10593;48.398;10.698;2022-10-31T15:22:56;18.40;65.70
20866;DHT22;10593;48.398;10.698;2022-10-31T15:25:24;18.40;65.70
20866;DHT22;10593;48.398;10.698;2022-10-31T15:27:53;18.40;65.80
20866;DHT22;10593;48.398;10.698;2022-10-31T15:30:27;18.40;65.90
20866;DHT22;10593;48.398;10.698;2022-10-31T15:32:54;18.40;65.90
20866;DHT22;10593;48.398;10.698;2022-10-31T15:35:29;18.40;65.90
20866;DHT22;10593;48.398;10.698;2022-10-31T15:37:57;18.40;66.10
20866;DHT22;10593;48.398;10.698;2022-10-31T15:40:25;18.40;65.90
20866;DHT22;10593;48.398;10.698;2022-10-31T15:42:58;18.40;65.90
20866;DHT22;10593;48.398;10.698;2022-10-31T15:45:28;18.30;66.00
20866;DHT22;10593;48.398;10.698;2022-10-31T15:48:01;18.30;65.80
20866;DHT22;10593;48.398;10.698;2022-10-31T15:50:40;18.40;65.90
20866;DHT22;10593;48.398;10.698;2022-10-31T15:55:59;18.30;65.80
20866;DHT22;10593;48.398;10.698;2022-10-31T15:58:28;18.30;65.80
20866;DHT22;10593;48.398;10.698;2022-10-31T16:01:18;18.30;65.50
20866;DHT22;10593;48.398;10.698;2022-10-31T16:06:26;18.30;65.50
20866;DHT22;10593;48.398;10.698;2022-10-31T16:08:52;18.30;65.20
20866;DHT22;10593;48.398;10.698;2022-10-31T16:11:21;18.20;65.10
20866;DHT22;10593;48.398;10.698;2022-10-31T16:16:23;18.20;65.20
20866;DHT22;10593;48.398;10.698;2022-10-31T16:18:51;18.20;65.10
20866;DHT22;10593;48.398;10.698;2022-10-31T16:21:27;18.10;65.00
20866;DHT22;10593;48.398;10.698;2022-10-31T16:24:01;18.10;65.10
20866;DHT22;10593;48.398;10.698;2022-10-31T16:26:30;18.10;65.00
20866;DHT22;10593;48.398;10.698;2022-10-31T16:28:58;18.10;64.90
20866;DHT22;10593;48.398;10.698;2022-10-31T16:31:36;18.10;65.00
20866;DHT22;10593;48.398;10.698;2022-10-31T16:34:15;18.00;65.00
20866;DHT22;10593;48.398;10.698;2022-10-31T16:36:45;18.00;65.00
20866;DHT22;10593;48.398;10.698;2022-10-31T16:39:11;18.00;64.70
20866;DHT22;10593;48.398;10.698;2022-10-31T16:41:43;17.90;64.60
20866;DHT22;10593;48.398;10.698;2022-10-31T16:44:19;17.90;64.70
20866;DHT22;10593;48.398;10.698;2022-10-31T16:46:47;17.90;64.70
20866;DHT22;10593;48.398;10.698;2022-10-31T16:49:22;17.90;64.60
20866;DHT22;10593;48.398;10.698;2022-10-31T16:51:49;17.90;64.60
20866;DHT22;10593;48.398;10.698;2022-10-31T16:54:14;17.80;64.60
20866;DHT22;10593;48.398;10.698;2022-10-31T16:56:41;17.80;64.60
20866;DHT22;10593;48.398;10.698;2022-10-31T16:59:11;17.80;64.60
20866;DHT22;10593;48.398;10.698;2022-10-31T17:01:39;17.70;64.50
20866;DHT22;10593;48.398;10.698;2022-10-31T17:04:07;17.70;64.50
20866;DHT22;10593;48.398;10.698;2022-10-31T17:06:34;17.70;64.40
20866;DHT22;10593;48.398;10.698;2022-10-31T17:09:01;17.70;64.40
20866;DHT22;10593;48.398;10.698;2022-10-31T17:11:26;17.60;64.30
20866;DHT22;10593;48.398;10.698;2022-10-31T17:13:53;17.60;64.30
20866;DHT22;10593;48.398;10.698;2022-10-31T17:16:19;17.60;64.20
20866;DHT22;10593;48.398;10.698;2022-10-31T17:18:45;17.60;64.20
20866;DHT22;10593;48.398;10.698;2022-10-31T17:21:17;17.50;64.00
20866;DHT22;10593;48.398;10.698;2022-10-31T17:23:47;17.50;64.00
20866;DHT22;10593;48.398;10.698;2022-10-31T17:26:14;17.50;63.90
20866;DHT22;10593;48.398;10.698;2022-10-31T17:28:40;17.50;63.70
20866;DHT22;10593;48.398;10.698;2022-10-31T17:31:07;17.40;63.50
20866;DHT22;10593;48.398;10.698;2022-10-31T17:33:44;17.40;63.40
20866;DHT22;10593;48.398;10.698;2022-10-31T17:36:10;17.30;63.20
20866;DHT22;10593;48.398;10.698;2022-10-31T17:38:37;17.40;63.30
20866;DHT22;10593;48.398;10.698;2022-10-31T17:41:06;17.30;63.20
20866;DHT22;10593;48.398;10.698;2022-10-31T17:43:33;17.30;63.20
20866;DHT22;10593;48.398;10.698;2022-10-31T17:45:59;17.30;63.10
20866;DHT22;10593;48.398;10.698;2022-10-31T17:48:26;17.20;63.00
20866;DHT22;10593;48.398;10.698;2022-10-31T17:50:52;17.20;62.90